sensor_id;sensor_type;location;lat;lon;timestamp;temperature;humidity
1453;DHT22;720;47.738;7.998;2022-09-09T00:02:01;12.70;99.90
1453;DHT22;720;47.738;7.998;2022-09-09T00:04:30;12.80;99.90
1453;DHT22;720;47.738;7.998;2022-09-09T00:15:18;12.70;99.90
1453;DHT22;720;47.738;7.998;2022-09-09T00:18:10;12.60;99.90
1453;DHT22;720;47.738;7.998;2022-09-09T00:20:46;12.50;99.90
1453;DHT22;720;47.738;7.998;2022-09-09T00:23:34;12.50;99.90
1453;DHT22;720;47.738;7.998;2022-09-09T00:31:33;12.40;99.90
1453;DHT22;720;47.738;7.998;2022-09-09T00:34:05;12.70;99.90
1453;DHT22;720;47.738;7.998;2022-09-09T00:36:39;12.80;99.90
1453;DHT22;720;47.738;7.998;2022-09-09T00:39:05;12.70;99.90
1453;DHT22;720;47.738;7.998;2022-09-09T00:47:04;13.20;99.90
1453;DHT22;720;47.738;7.998;2022-09-09T00:52:36;13.20;99.90
1453;DHT22;720;47.738;7.998;2022-09-09T00:57:35;13.40;99.90
1453;DHT22;720;47.738;7.998;2022-09-09T01:03:08;13.50;99.90
1453;DHT22;720;47.738;7.998;2022-09-09T01:10:52;13.00;99.90
1453;DHT22;720;47.738;7.998;2022-09-09T01:13:34;13.20;99.90
1453;DHT22;720;47.738;7.998;2022-09-09T01:16:03;13.10;99.90
1453;DHT22;720;47.738;7.998;2022-09-09T01:18:37;13.20;99.90
1453;DHT22;720;47.738;7.998;2022-09-09T01:21:20;13.00;99.90
1453;DHT22;720;47.738;7.998;2022-09-09T01:26:46;13.60;99.90
1453;DHT22;720;47.738;7.998;2022-09-09T01:29:16;13.60;99.90
1453;DHT22;720;47.738;7.998;2022-09-09T01:31:55;13.30;99.90
1453;DHT22;720;47.738;7.998;2022-09-09T01:34:23;13.70;99.90
1453;DHT22;720;47.738;7.998;2022-09-09T01:37:08;13.50;99.90
1453;DHT22;720;47.738;7.998;2022-09-09T01:39:35;13.80;99.90
1453;DHT22;720;47.738;7.998;2022-09-09T01:42:03;13.60;99.90
1453;DHT22;720;47.738;7.998;2022-09-09T01:44:30;13.60;99.90
1453;DHT22;720;47.738;7.998;2022-09-09T01:49:22;13.90;99.90
1453;DHT22;720;47.738;7.998;2022-09-09T01:51:55;13.40;99.90
1453;DHT22;720;47.738;7.998;2022-09-09T01:54:23;13.70;99.90
1453;DHT22;720;47.738;7.998;2022-09-09T01:57:06;13.70;99.90
1453;DHT22;720;47.738;7.998;2022-09-09T01:59:45;13.30;99.90
1453;DHT22;720;47.738;7.998;2022-09-09T02:02:38;13.50;99.90
1453;DHT22;720;47.738;7.998;2022-09-09T02:08:56;14.00;99.90
1453;DHT22;720;47.738;7.998;2022-09-09T02:11:01;13.60;99.90
1453;DHT22;720;47.738;7.998;2022-09-09T02:13:29;13.20;99.90
1453;DHT22;720;47.738;7.998;2022-09-09T02:18:46;13.50;99.90
1453;DHT22;720;47.738;7.998;2022-09-09T02:23:41;13.30;99.90
1453;DHT22;720;47.738;7.998;2022-09-09T02:26:10;13.80;99.90
1453;DHT22;720;47.738;7.998;2022-09-09T02:28:39;13.60;99.90
1453;DHT22;720;47.738;7.998;2022-09-09T02:31:06;13.60;99.90
1453;DHT22;720;47.738;7.998;2022-09-09T02:33:37;13.80;99.90
1453;DHT22;720;47.738;7.998;2022-09-09T02:36:05;13.60;99.90
1453;DHT22;720;47.738;7.998;2022-09-09T02:38:36;13.30;99.90
1453;DHT22;720;47.738;7.998;2022-09-09T02:41:05;13.90;99.90
1453;DHT22;720;47.738;7.998;2022-09-09T02:43:34;13.70;99.90
1453;DHT22;720;47.738;7.998;2022-09-09T02:46:24;13.50;99.90
1453;DHT22;720;47.738;7.998;2022-09-09T02:51:53;13.80;99.90
1453;DHT22;720;47.738;7.998;2022-09-09T02:54:34;14.20;99.90
1453;DHT22;720;47.738;7.998;2022-09-09T02:59:38;13.60;99.90
1453;DHT22;720;47.738;7.998;2022-09-09T03:02:04;14.10;99.90
1453;DHT22;720;47.738;7.998;2022-09-09T03:06:57;14.20;99.90
1453;DHT22;720;47.738;7.998;2022-09-09T03:09:24;13.90;99.90
1453;DHT22;720;47.738;7.998;2022-09-09T03:19:08;13.90;99.90
1453;DHT22;720;47.738;7.998;2022-09-09T03:21:34;13.80;99.90
1453;DHT22;720;47.738;7.998;2022-09-09T03:24:01;14.20;99.90
1453;DHT22;720;47.738;7.998;2022-09-09T03:26:29;13.90;99.90
1453;DHT22;720;47.738;7.998;2022-09-09T03:28:55;13.80;99.90
1453;DHT22;720;47.738;7.998;2022-09-09T03:36:14;14.10;99.90
1453;DHT22;720;47.738;7.998;2022-09-09T03:38:41;14.10;99.90
1453;DHT22;720;47.738;7.998;2022-09-09T03:41:06;14.20;99.90
1453;DHT22;720;47.738;7.998;2022-09-09T03:43:33;13.90;99.90
1453;DHT22;720;47.738;7.998;2022-09-09T03:45:59;14.40;99.90
1453;DHT22;720;47.738;7.998;2022-09-09T03:48:25;14.30;99.90
1453;DHT22;720;47.738;7.998;2022-09-09T03:50:54;14.50;99.90
1453;DHT22;720;47.738;7.998;2022-09-09T03:53:22;14.30;99.90
1453;DHT22;720;47.738;7.998;2022-09-09T03:55:51;14.50;99.90
1453;DHT22;720;47.738;7.998;2022-09-09T03:58:21;14.30;99.90
1453;DHT22;720;47.738;7.998;2022-09-09T04:00:56;14.30;99.90
1453;DHT22;720;47.738;7.998;2022-09-09T04:03:23;14.50;99.90
1453;DHT22;720;47.738;7.998;2022-09-09T04:05:50;14.30;99.90
1453;DHT22;720;47.738;7.998;2022-09-09T04:08:16;14.60;99.90
1453;DHT22;720;47.738;7.998;2022-09-09T04:10:45;14.60;99.90
1453;DHT22;720;47.738;7.998;2022-09-09T04:13:12;14.50;99.90
1453;DHT22;720;47.738;7.998;2022-09-09T04:15:39;14.80;99.90
1453;DHT22;720;47.738;7.998;2022-09-09T04:20:31;14.60;99.90
1453;DHT22;720;47.738;7.998;2022-09-09T04:22:58;14.50;99.90
1453;DHT22;720;47.738;7.998;2022-09-09T04:25:23;14.60;99.90
1453;DHT22;720;47.738;7.998;2022-09-09T04:27:54;14.70;99.90
1453;DHT22;720;47.738;7.998;2022-09-09T04:30:20;14.80;99.90
1453;DHT22;720;47.738;7.998;2022-09-09T04:35:12;14.80;99.90
1453;DHT22;720;47.738;7.998;2022-09-09T04:40:04;14.80;99.90
1453;DHT22;720;47.738;7.998;2022-09-09T04:44:56;14.80;99.90
1453;DHT22;720;47.738;7.998;2022-09-09T04:52:15;14.70;99.90
1453;DHT22;720;47.738;7.998;2022-09-09T04:54:42;15.10;99.90
1453;DHT22;720;47.738;7.998;2022-09-09T04:57:10;14.80;99.90
1453;DHT22;720;47.738;7.998;2022-09-09T04:59:36;15.20;99.90
1453;DHT22;720;47.738;7.998;2022-09-09T05:09:20;15.10;99.90
1453;DHT22;720;47.738;7.998;2022-09-09T05:14:12;15.00;99.90
1453;DHT22;720;47.738;7.998;2022-09-09T05:19:03;14.70;99.90
1453;DHT22;720;47.738;7.998;2022-09-09T05:21:30;14.80;99.90
1453;DHT22;720;47.738;7.998;2022-09-09T05:23:56;14.80;99.90
1453;DHT22;720;47.738;7.998;2022-09-09T05:28:49;15.30;99.90
1453;DHT22;720;47.738;7.998;2022-09-09T05:31:16;15.20;99.90
1453;DHT22;720;47.738;7.998;2022-09-09T05:33:44;15.10;99.90
1453;DHT22;720;47.738;7.998;2022-09-09T05:36:13;15.20;99.90
1453;DHT22;720;47.738;7.998;2022-09-09T05:38:40;15.20;99.90
1453;DHT22;720;47.738;7.998;2022-09-09T05:41:06;15.20;99.90
1453;DHT22;720;47.738;7.998;2022-09-09T05:43:32;15.30;99.90
1453;DHT22;720;47.738;7.998;2022-09-09T05:46:07;15.20;99.90
1453;DHT22;720;47.738;7.998;2022-09-09T05:48:35;15.60;99.90
1453;DHT22;720;47.738;7.998;2022-09-09T05:51:03;15.50;99.90
1453;DHT22;720;47.738;7.998;2022-09-09T05:53:30;15.30;99.90
1453;DHT22;720;47.738;7.998;2022-09-09T05:56:08;15.10;99.90
1453;DHT22;720;47.738;7.998;2022-09-09T05:58:38;15.10;99.90
1453;DHT22;720;47.738;7.998;2022-09-09T06:01:09;15.30;99.90
1453;DHT22;720;47.738;7.998;2022-09-09T06:03:40;15.30;99.90
1453;DHT22;720;47.738;7.998;2022-09-09T06:06:11;15.30;99.90
1453;DHT22;720;47.738;7.998;2022-09-09T06:08:39;15.70;99.90
1453;DHT22;720;47.738;7.998;2022-09-09T06:11:11;15.40;99.90
1453;DHT22;720;47.738;7.998;2022-09-09T06:13:37;15.80;99.90
1453;DHT22;720;47.738;7.998;2022-09-09T06:16:17;16.00;99.90
1453;DHT22;720;47.738;7.998;2022-09-09T06:18:43;15.80;99.90
1453;DHT22;720;47.738;7.998;2022-09-09T06:21:17;15.80;99.90
1453;DHT22;720;47.738;7.998;2022-09-09T06:23:43;15.80;99.90
1453;DHT22;720;47.738;7.998;2022-09-09T06:26:27;15.80;99.90
1453;DHT22;720;47.738;7.998;2022-09-09T06:28:54;16.00;99.90
1453;DHT22;720;47.738;7.998;2022-09-09T06:31:22;15.90;99.90
1453;DHT22;720;47.738;7.998;2022-09-09T06:33:49;15.80;99.90
1453;DHT22;720;47.738;7.998;2022-09-09T06:36:17;15.20;99.90
1453;DHT22;720;47.738;7.998;2022-09-09T06:41:10;16.00;99.90
1453;DHT22;720;47.738;7.998;2022-09-09T06:43:36;16.20;99.90
1453;DHT22;720;47.738;7.998;2022-09-09T06:46:05;16.10;99.90
1453;DHT22;720;47.738;7.998;2022-09-09T06:48:31;16.10;99.90
1453;DHT22;720;47.738;7.998;2022-09-09T06:51:21;15.80;99.90
1453;DHT22;720;47.738;7.998;2022-09-09T06:53:50;16.00;99.90
1453;DHT22;720;47.738;7.998;2022-09-09T06:56:24;16.00;99.90
1453;DHT22;720;47.738;7.998;2022-09-09T06:58:51;16.00;99.90
1453;DHT22;720;47.738;7.998;2022-09-09T07:01:29;16.20;99.90
1453;DHT22;720;47.738;7.998;2022-09-09T07:03:57;16.30;99.90
1453;DHT22;720;47.738;7.998;2022-09-09T07:06:29;16.10;99.90
1453;DHT22;720;47.738;7.998;2022-09-09T07:08:59;16.60;99.90
1453;DHT22;720;47.738;7.998;2022-09-09T07:11:30;16.60;99.90
1453;DHT22;720;47.738;7.998;2022-09-09T07:13:58;16.60;99.90
1453;DHT22;720;47.738;7.998;2022-09-09T07:16:24;16.60;99.90
1453;DHT22;720;47.738;7.998;2022-09-09T07:18:51;16.30;99.90
1453;DHT22;720;47.738;7.998;2022-09-09T07:21:18;16.60;99.90
1453;DHT22;720;47.738;7.998;2022-09-09T07:23:47;16.70;99.90
1453;DHT22;720;47.738;7.998;2022-09-09T07:26:16;16.40;99.90
1453;DHT22;720;47.738;7.998;2022-09-09T07:28:42;16.60;99.90
1453;DHT22;720;47.738;7.998;2022-09-09T07:33:42;16.30;99.90
1453;DHT22;720;47.738;7.998;2022-09-09T07:36:17;16.40;99.90
1453;DHT22;720;47.738;7.998;2022-09-09T07:38:48;16.60;99.90
1453;DHT22;720;47.738;7.998;2022-09-09T07:41:23;16.60;99.90
1453;DHT22;720;47.738;7.998;2022-09-09T07:43:50;16.50;99.90
1453;DHT22;720;47.738;7.998;2022-09-09T07:46:18;16.10;99.90
1453;DHT22;720;47.738;7.998;2022-09-09T07:48:49;16.30;99.90
1453;DHT22;720;47.738;7.998;2022-09-09T07:51:18;16.70;99.90
1453;DHT22;720;47.738;7.998;2022-09-09T07:53:46;16.50;99.90
1453;DHT22;720;47.738;7.998;2022-09-09T07:56:16;16.60;99.90
1453;DHT22;720;47.738;7.998;2022-09-09T07:58:45;16.60;99.90
1453;DHT22;720;47.738;7.998;2022-09-09T08:01:16;16.60;99.90
1453;DHT22;720;47.738;7.998;2022-09-09T08:03:47;17.00;99.90
1453;DHT22;720;47.738;7.998;2022-09-09T08:08:39;17.00;99.90
1453;DHT22;720;47.738;7.998;2022-09-09T08:11:11;17.20;99.90
1453;DHT22;720;47.738;7.998;2022-09-09T08:16:18;17.20;99.90
1453;DHT22;720;47.738;7.998;2022-09-09T08:18:44;17.30;99.90
1453;DHT22;720;47.738;7.998;2022-09-09T08:21:14;17.40;99.90
1453;DHT22;720;47.738;7.998;2022-09-09T08:23:43;17.40;99.90
1453;DHT22;720;47.738;7.998;2022-09-09T08:26:15;17.40;99.90
1453;DHT22;720;47.738;7.998;2022-09-09T08:28:42;17.70;99.90
1453;DHT22;720;47.738;7.998;2022-09-09T08:31:14;18.30;99.90
1453;DHT22;720;47.738;7.998;2022-09-09T08:33:41;20.40;99.90
1453;DHT22;720;47.738;7.998;2022-09-09T08:36:10;21.70;99.90
1453;DHT22;720;47.738;7.998;2022-09-09T08:38:37;23.40;99.90
1453;DHT22;720;47.738;7.998;2022-09-09T08:44:06;25.20;90.60
1453;DHT22;720;47.738;7.998;2022-09-09T08:49:13;25.60;99.90
1453;DHT22;720;47.738;7.998;2022-09-09T08:51:40;25.70;99.90
1453;DHT22;720;47.738;7.998;2022-09-09T08:54:08;26.70;99.90
1453;DHT22;720;47.738;7.998;2022-09-09T08:56:36;27.80;99.50
1453;DHT22;720;47.738;7.998;2022-09-09T08:59:02;28.20;73.00
1453;DHT22;720;47.738;7.998;2022-09-09T09:07:05;27.40;96.50
1453;DHT22;720;47.738;7.998;2022-09-09T09:10:03;25.90;94.90
1453;DHT22;720;47.738;7.998;2022-09-09T09:12:37;25.00;96.30
1453;DHT22;720;47.738;7.998;2022-09-09T09:15:14;24.40;99.90
1453;DHT22;720;47.738;7.998;2022-09-09T09:20:16;22.30;98.60
1453;DHT22;720;47.738;7.998;2022-09-09T09:22:51;22.50;80.10
1453;DHT22;720;47.738;7.998;2022-09-09T09:25:23;21.30;99.90
1453;DHT22;720;47.738;7.998;2022-09-09T09:28:29;20.70;92.30
1453;DHT22;720;47.738;7.998;2022-09-09T09:31:07;20.70;99.90
1453;DHT22;720;47.738;7.998;2022-09-09T09:36:08;21.40;99.90
1453;DHT22;720;47.738;7.998;2022-09-09T09:38:35;21.80;90.00
1453;DHT22;720;47.738;7.998;2022-09-09T09:41:02;21.80;90.30
1453;DHT22;720;47.738;7.998;2022-09-09T09:43:32;21.70;88.90
1453;DHT22;720;47.738;7.998;2022-09-09T09:45:59;22.00;99.90
1453;DHT22;720;47.738;7.998;2022-09-09T09:48:26;21.70;86.80
1453;DHT22;720;47.738;7.998;2022-09-09T09:50:58;21.90;90.20
1453;DHT22;720;47.738;7.998;2022-09-09T09:55:59;23.20;87.20
1453;DHT22;720;47.738;7.998;2022-09-09T09:58:32;24.20;85.00
1453;DHT22;720;47.738;7.998;2022-09-09T10:00:59;25.60;76.00
1453;DHT22;720;47.738;7.998;2022-09-09T10:03:30;25.60;76.70
1453;DHT22;720;47.738;7.998;2022-09-09T10:05:56;25.60;98.80
1453;DHT22;720;47.738;7.998;2022-09-09T10:08:26;25.10;71.80
1453;DHT22;720;47.738;7.998;2022-09-09T10:19:10;25.70;96.30
1453;DHT22;720;47.738;7.998;2022-09-09T10:38:17;26.30;97.40
1453;DHT22;720;47.738;7.998;2022-09-09T10:43:45;25.60;68.40
1453;DHT22;720;47.738;7.998;2022-09-09T10:49:27;23.90;67.80
1453;DHT22;720;47.738;7.998;2022-09-09T10:52:21;22.20;99.90
1453;DHT22;720;47.738;7.998;2022-09-09T10:55:10;22.20;99.90
1453;DHT22;720;47.738;7.998;2022-09-09T10:57:47;21.20;99.90
1453;DHT22;720;47.738;7.998;2022-09-09T11:00:17;21.30;97.10
1453;DHT22;720;47.738;7.998;2022-09-09T11:05:14;20.30;99.90
1453;DHT22;720;47.738;7.998;2022-09-09T11:07:52;19.60;99.90
1453;DHT22;720;47.738;7.998;2022-09-09T11:10:39;20.10;99.90
1453;DHT22;720;47.738;7.998;2022-09-09T11:16:33;20.30;90.20
1453;DHT22;720;47.738;7.998;2022-09-09T11:19:17;20.60;81.50
1453;DHT22;720;47.738;7.998;2022-09-09T11:21:50;20.60;98.90
1453;DHT22;720;47.738;7.998;2022-09-09T11:27:15;20.70;99.90
1453;DHT22;720;47.738;7.998;2022-09-09T11:30:12;21.00;99.80
1453;DHT22;720;47.738;7.998;2022-09-09T11:33:13;20.60;99.90
1453;DHT22;720;47.738;7.998;2022-09-09T11:38:47;20.00;99.90
1453;DHT22;720;47.738;7.998;2022-09-09T11:41:14;19.90;89.20
1453;DHT22;720;47.738;7.998;2022-09-09T11:43:46;19.90;90.60
1453;DHT22;720;47.738;7.998;2022-09-09T11:46:14;19.80;85.70
1453;DHT22;720;47.738;7.998;2022-09-09T11:48:44;19.80;92.50
1453;DHT22;720;47.738;7.998;2022-09-09T11:51:35;19.80;92.40
1453;DHT22;720;47.738;7.998;2022-09-09T11:56:53;20.40;99.90
1453;DHT22;720;47.738;7.998;2022-09-09T11:59:30;20.60;99.90
1453;DHT22;720;47.738;7.998;2022-09-09T12:01:57;20.70;99.90
1453;DHT22;720;47.738;7.998;2022-09-09T12:06:56;21.50;99.90
1453;DHT22;720;47.738;7.998;2022-09-09T12:09:47;21.30;87.90
1453;DHT22;720;47.738;7.998;2022-09-09T12:19:41;21.30;99.90
1453;DHT22;720;47.738;7.998;2022-09-09T12:27:15;21.90;76.30
1453;DHT22;720;47.738;7.998;2022-09-09T12:29:55;21.70;97.70
1453;DHT22;720;47.738;7.998;2022-09-09T12:32:25;21.80;92.00
1453;DHT22;720;47.738;7.998;2022-09-09T12:34:58;22.30;98.50
1453;DHT22;720;47.738;7.998;2022-09-09T12:37:41;21.80;97.60
1453;DHT22;720;47.738;7.998;2022-09-09T12:40:25;21.30;98.70
1453;DHT22;720;47.738;7.998;2022-09-09T12:42:52;21.30;98.00
1453;DHT22;720;47.738;7.998;2022-09-09T12:45:20;21.10;99.90
1453;DHT22;720;47.738;7.998;2022-09-09T12:48:08;21.40;99.90
1453;DHT22;720;47.738;7.998;2022-09-09T12:50:43;21.60;82.50
1453;DHT22;720;47.738;7.998;2022-09-09T12:53:15;21.40;77.80
1453;DHT22;720;47.738;7.998;2022-09-09T12:55:53;21.50;98.70
1453;DHT22;720;47.738;7.998;2022-09-09T12:58:22;21.40;98.20
1453;DHT22;720;47.738;7.998;2022-09-09T13:00:55;21.30;97.60
1453;DHT22;720;47.738;7.998;2022-09-09T13:03:22;21.20;98.20
1453;DHT22;720;47.738;7.998;2022-09-09T13:05:49;21.00;99.90
1453;DHT22;720;47.738;7.998;2022-09-09T13:08:15;21.10;98.30
1453;DHT22;720;47.738;7.998;2022-09-09T13:11:00;20.60;98.30
1453;DHT22;720;47.738;7.998;2022-09-09T13:13:38;21.00;99.60
1453;DHT22;720;47.738;7.998;2022-09-09T13:16:06;22.90;84.40
1453;DHT22;720;47.738;7.998;2022-09-09T13:18:39;20.60;99.90
1453;DHT22;720;47.738;7.998;2022-09-09T13:21:06;21.00;97.30
1453;DHT22;720;47.738;7.998;2022-09-09T13:23:34;21.40;99.90
1453;DHT22;720;47.738;7.998;2022-09-09T13:26:06;21.30;78.40
1453;DHT22;720;47.738;7.998;2022-09-09T13:28:33;21.00;99.90
1453;DHT22;720;47.738;7.998;2022-09-09T13:31:05;20.90;99.90
1453;DHT22;720;47.738;7.998;2022-09-09T13:33:43;21.30;98.80
1453;DHT22;720;47.738;7.998;2022-09-09T13:36:10;21.10;77.40
1453;DHT22;720;47.738;7.998;2022-09-09T13:38:40;21.10;76.80
1453;DHT22;720;47.738;7.998;2022-09-09T13:41:41;21.10;72.50
1453;DHT22;720;47.738;7.998;2022-09-09T13:44:19;21.10;73.20
1453;DHT22;720;47.738;7.998;2022-09-09T13:46:46;20.50;99.90
1453;DHT22;720;47.738;7.998;2022-09-09T13:51:40;20.40;79.60
1453;DHT22;720;47.738;7.998;2022-09-09T13:54:10;20.80;98.10
1453;DHT22;720;47.738;7.998;2022-09-09T13:56:37;20.50;73.90
1453;DHT22;720;47.738;7.998;2022-09-09T13:59:06;20.70;99.60
1453;DHT22;720;47.738;7.998;2022-09-09T14:01:31;20.50;74.30
1453;DHT22;720;47.738;7.998;2022-09-09T14:04:00;20.50;99.90
1453;DHT22;720;47.738;7.998;2022-09-09T14:06:26;20.50;99.90
1453;DHT22;720;47.738;7.998;2022-09-09T14:11:20;20.20;99.90
1453;DHT22;720;47.738;7.998;2022-09-09T14:13:47;20.00;99.90
1453;DHT22;720;47.738;7.998;2022-09-09T14:16:18;19.40;99.10
1453;DHT22;720;47.738;7.998;2022-09-09T14:18:45;19.60;99.90
1453;DHT22;720;47.738;7.998;2022-09-09T14:21:11;19.00;99.90
1453;DHT22;720;47.738;7.998;2022-09-09T14:26:06;19.20;99.90
1453;DHT22;720;47.738;7.998;2022-09-09T14:28:33;18.60;99.90
1453;DHT22;720;47.738;7.998;2022-09-09T14:31:00;18.70;88.30
1453;DHT22;720;47.738;7.998;2022-09-09T14:35:58;18.70;99.90
1453;DHT22;720;47.738;7.998;2022-09-09T14:38:24;18.60;99.90
1453;DHT22;720;47.738;7.998;2022-09-09T14:40:50;18.60;99.90
1453;DHT22;720;47.738;7.998;2022-09-09T14:43:16;18.50;99.90
1453;DHT22;720;47.738;7.998;2022-09-09T14:48:08;18.20;99.90
1453;DHT22;720;47.738;7.998;2022-09-09T14:53:05;18.30;99.90
1453;DHT22;720;47.738;7.998;2022-09-09T14:55:30;18.40;86.40
1453;DHT22;720;47.738;7.998;2022-09-09T14:57:56;18.20;99.90
1453;DHT22;720;47.738;7.998;2022-09-09T15:02:52;18.30;99.90
1453;DHT22;720;47.738;7.998;2022-09-09T15:05:18;18.30;91.60
1453;DHT22;720;47.738;7.998;2022-09-09T15:10:10;18.00;93.00
1453;DHT22;720;47.738;7.998;2022-09-09T15:15:04;17.50;99.90
1453;DHT22;720;47.738;7.998;2022-09-09T15:17:30;17.10;96.00
1453;DHT22;720;47.738;7.998;2022-09-09T15:22:23;17.10;94.30
1453;DHT22;720;47.738;7.998;2022-09-09T15:24:49;17.60;99.90
1453;DHT22;720;47.738;7.998;2022-09-09T15:32:09;17.50;95.30
1453;DHT22;720;47.738;7.998;2022-09-09T15:39:27;17.70;94.70
1453;DHT22;720;47.738;7.998;2022-09-09T15:41:53;17.60;99.90
1453;DHT22;720;47.738;7.998;2022-09-09T15:46:49;17.40;91.40
1453;DHT22;720;47.738;7.998;2022-09-09T15:49:23;17.40;92.10
1453;DHT22;720;47.738;7.998;2022-09-09T15:51:56;17.10;99.90
1453;DHT22;720;47.738;7.998;2022-09-09T15:54:23;17.20;97.60
1453;DHT22;720;47.738;7.998;2022-09-09T15:56:56;17.30;99.90
1453;DHT22;720;47.738;7.998;2022-09-09T15:59:23;17.00;97.90
1453;DHT22;720;47.738;7.998;2022-09-09T16:01:49;16.80;99.90
1453;DHT22;720;47.738;7.998;2022-09-09T16:04:17;16.90;98.40
1453;DHT22;720;47.738;7.998;2022-09-09T16:06:49;17.00;99.90
1453;DHT22;720;47.738;7.998;2022-09-09T16:09:15;16.60;98.40
1453;DHT22;720;47.738;7.998;2022-09-09T16:14:07;16.70;97.10
1453;DHT22;720;47.738;7.998;2022-09-09T16:16:34;16.80;99.90
1453;DHT22;720;47.738;7.998;2022-09-09T16:19:06;16.90;96.50
1453;DHT22;720;47.738;7.998;2022-09-09T16:21:38;17.10;99.90
1453;DHT22;720;47.738;7.998;2022-09-09T16:24:06;17.00;95.80
1453;DHT22;720;47.738;7.998;2022-09-09T16:26:33;16.80;99.90
1453;DHT22;720;47.738;7.998;2022-09-09T16:29:00;17.10;94.20
1453;DHT22;720;47.738;7.998;2022-09-09T16:31:27;17.20;96.60
1453;DHT22;720;47.738;7.998;2022-09-09T16:36:24;17.00;99.90
1453;DHT22;720;47.738;7.998;2022-09-09T16:38:55;17.00;99.90
1453;DHT22;720;47.738;7.998;2022-09-09T16:43:59;17.40;99.90
1453;DHT22;720;47.738;7.998;2022-09-09T16:46:26;17.10;93.70
1453;DHT22;720;47.738;7.998;2022-09-09T16:48:53;17.00;99.90
1453;DHT22;720;47.738;7.998;2022-09-09T16:51:29;17.10;99.90
1453;DHT22;720;47.738;7.998;2022-09-09T16:53:57;17.10;95.50
1453;DHT22;720;47.738;7.998;2022-09-09T16:56:25;17.10;99.90
1453;DHT22;720;47.738;7.998;2022-09-09T16:58:54;16.90;96.70
1453;DHT22;720;47.738;7.998;2022-09-09T17:01:24;17.20;99.90
1453;DHT22;720;47.738;7.998;2022-09-09T17:03:57;16.60;99.90
1453;DHT22;720;47.738;7.998;2022-09-09T17:06:23;16.70;98.50
1453;DHT22;720;47.738;7.998;2022-09-09T17:08:57;16.90;99.90
1453;DHT22;720;47.738;7.998;2022-09-09T17:11:24;16.70;99.90
1453;DHT22;720;47.738;7.998;2022-09-09T17:16:19;16.30;99.90
1453;DHT22;720;47.738;7.998;2022-09-09T17:21:15;16.10;99.50
1453;DHT22;720;47.738;7.998;2022-09-09T17:26:11;16.00;99.90
1453;DHT22;720;47.738;7.998;2022-09-09T17:28:39;15.70;99.90
1453;DHT22;720;47.738;7.998;2022-09-09T17:31:06;15.70;99.90
1453;DHT22;720;47.738;7.998;2022-09-09T17:33:37;15.60;99.90
1453;DHT22;720;47.738;7.998;2022-09-09T17:36:15;15.20;99.90
1453;DHT22;720;47.738;7.998;2022-09-09T17:41:19;14.80;99.90
1453;DHT22;720;47.738;7.998;2022-09-09T17:46:16;14.60;99.90
1453;DHT22;720;47.738;7.998;2022-09-09T17:48:43;14.50;99.90
1453;DHT22;720;47.738;7.998;2022-09-09T17:51:14;14.50;99.90
1453;DHT22;720;47.738;7.998;2022-09-09T17:53:46;14.30;99.90
1453;DHT22;720;47.738;7.998;2022-09-09T17:56:14;14.30;99.90
1453;DHT22;720;47.738;7.998;2022-09-09T17:58:40;13.90;99.90
1453;DHT22;720;47.738;7.998;2022-09-09T18:01:10;14.20;99.90
1453;DHT22;720;47.738;7.998;2022-09-09T18:03:38;14.20;99.90
1453;DHT22;720;47.738;7.998;2022-09-09T18:06:07;14.00;99.90
1453;DHT22;720;47.738;7.998;2022-09-09T18:08:33;14.00;99.90
1453;DHT22;720;47.738;7.998;2022-09-09T18:11:00;14.00;99.90
1453;DHT22;720;47.738;7.998;2022-09-09T18:13:27;13.90;99.90
1453;DHT22;720;47.738;7.998;2022-09-09T18:18:20;13.90;99.90
1453;DHT22;720;47.738;7.998;2022-09-09T18:20:55;14.00;99.90
1453;DHT22;720;47.738;7.998;2022-09-09T18:23:21;13.90;99.90
1453;DHT22;720;47.738;7.998;2022-09-09T18:33:05;13.70;99.90
1453;DHT22;720;47.738;7.998;2022-09-09T18:37:57;14.00;99.90
1453;DHT22;720;47.738;7.998;2022-09-09T18:42:49;13.70;99.90
1453;DHT22;720;47.738;7.998;2022-09-09T18:45:15;13.90;99.90
1453;DHT22;720;47.738;7.998;2022-09-09T18:47:42;13.60;99.90
1453;DHT22;720;47.738;7.998;2022-09-09T18:50:09;13.90;99.90
1453;DHT22;720;47.738;7.998;2022-09-09T18:52:35;13.80;99.90
1453;DHT22;720;47.738;7.998;2022-09-09T18:57:27;14.00;99.90
1453;DHT22;720;47.738;7.998;2022-09-09T18:59:53;14.00;99.90
1453;DHT22;720;47.738;7.998;2022-09-09T19:04:46;13.80;99.90
1453;DHT22;720;47.738;7.998;2022-09-09T19:09:38;14.50;99.90
1453;DHT22;720;47.738;7.998;2022-09-09T19:12:03;14.20;99.90
1453;DHT22;720;47.738;7.998;2022-09-09T19:14:30;14.30;99.90
1453;DHT22;720;47.738;7.998;2022-09-09T19:16:56;14.60;99.90
1453;DHT22;720;47.738;7.998;2022-09-09T19:19:30;14.40;99.90
1453;DHT22;720;47.738;7.998;2022-09-09T19:21:56;14.40;99.90
1453;DHT22;720;47.738;7.998;2022-09-09T19:24:24;14.50;99.90
1453;DHT22;720;47.738;7.998;2022-09-09T19:26:54;14.60;99.90
1453;DHT22;720;47.738;7.998;2022-09-09T19:29:24;14.70;99.90
1453;DHT22;720;47.738;7.998;2022-09-09T19:31:51;14.50;99.90
1453;DHT22;720;47.738;7.998;2022-09-09T19:34:17;14.60;99.90
1453;DHT22;720;47.738;7.998;2022-09-09T19:36:45;14.60;99.90
1453;DHT22;720;47.738;7.998;2022-09-09T19:39:12;14.60;99.90
1453;DHT22;720;47.738;7.998;2022-09-09T19:41:38;14.70;99.90
1453;DHT22;720;47.738;7.998;2022-09-09T19:44:05;14.50;99.90
1453;DHT22;720;47.738;7.998;2022-09-09T19:46:35;14.40;99.90
1453;DHT22;720;47.738;7.998;2022-09-09T19:49:03;14.40;99.90
1453;DHT22;720;47.738;7.998;2022-09-09T19:51:30;14.30;99.90
1453;DHT22;720;47.738;7.998;2022-09-09T19:54:08;14.10;99.90
1453;DHT22;720;47.738;7.998;2022-09-09T19:56:36;14.30;99.90
1453;DHT22;720;47.738;7.998;2022-09-09T20:01:33;14.30;99.90
1453;DHT22;720;47.738;7.998;2022-09-09T20:04:02;14.30;99.90
1453;DHT22;720;47.738;7.998;2022-09-09T20:06:31;14.30;99.90
1453;DHT22;720;47.738;7.998;2022-09-09T20:08:57;14.10;99.90
1453;DHT22;720;47.738;7.998;2022-09-09T20:11:24;14.20;99.90
1453;DHT22;720;47.738;7.998;2022-09-09T20:13:50;14.30;99.90
1453;DHT22;720;47.738;7.998;2022-09-09T20:16:22;14.50;99.90
1453;DHT22;720;47.738;7.998;2022-09-09T20:18:50;14.20;99.90
1453;DHT22;720;47.738;7.998;2022-09-09T20:21:19;14.20;99.90
1453;DHT22;720;47.738;7.998;2022-09-09T20:23:46;14.10;99.90
1453;DHT22;720;47.738;7.998;2022-09-09T20:26:15;13.90;99.90
1453;DHT22;720;47.738;7.998;2022-09-09T20:28:42;14.20;99.90
1453;DHT22;720;47.738;7.998;2022-09-09T20:31:12;14.00;99.90
1453;DHT22;720;47.738;7.998;2022-09-09T20:33:39;14.00;99.90
1453;DHT22;720;47.738;7.998;2022-09-09T20:38:45;14.20;99.90
1453;DHT22;720;47.738;7.998;2022-09-09T20:41:12;14.00;99.90
1453;DHT22;720;47.738;7.998;2022-09-09T20:43:44;13.90;99.90
1453;DHT22;720;47.738;7.998;2022-09-09T20:46:11;13.90;99.90
1453;DHT22;720;47.738;7.998;2022-09-09T20:51:04;14.20;99.90
1453;DHT22;720;47.738;7.998;2022-09-09T20:53:31;14.00;99.90
1453;DHT22;720;47.738;7.998;2022-09-09T20:56:01;14.00;99.90
1453;DHT22;720;47.738;7.998;2022-09-09T20:58:27;13.80;99.90
1453;DHT22;720;47.738;7.998;2022-09-09T21:00:56;14.20;99.90
1453;DHT22;720;47.738;7.998;2022-09-09T21:03:35;14.00;99.90
1453;DHT22;720;47.738;7.998;2022-09-09T21:06:05;14.30;99.90
1453;DHT22;720;47.738;7.998;2022-09-09T21:10:57;14.20;99.90